createdAt,value
2022-11-19T00:01:49.963Z,21.95
2022-11-19T00:04:46.840Z,21.38
2022-11-19T00:07:43.651Z,21.98
2022-11-19T00:10:40.710Z,20.80
2022-11-19T00:13:39.651Z,19.45
2022-11-19T00:16:36.557Z,19.17
2022-11-19T00:19:33.460Z,18.38
2022-11-19T00:22:30.292Z,21.17
2022-11-19T00:25:30.808Z,19.58
2022-11-19T00:28:27.628Z,18.80
2022-11-19T00:31:24.917Z,17.10
2022-11-19T00:34:21.822Z,19.80
2022-11-19T00:37:18.647Z,20.60
2022-11-19T00:40:15.624Z,19.42
2022-11-19T00:43:30.787Z,20.60
2022-11-19T00:46:31.752Z,16.73
2022-11-19T00:49:28.682Z,15.20
2022-11-19T00:52:25.551Z,19.33
2022-11-19T00:55:22.394Z,18.08
2022-11-19T00:58:19.491Z,18.33
2022-11-19T01:01:19.237Z,21.05
2022-11-19T01:04:16.207Z,18.30
2022-11-19T01:07:13.113Z,17.23
2022-11-19T01:10:10.171Z,20.85
2022-11-19T01:13:25.449Z,22.17
2022-11-19T01:16:28.360Z,19.80
2022-11-19T01:19:25.259Z,21.45
2022-11-19T01:22:22.111Z,14.07
2022-11-19T01:25:18.976Z,15.65
2022-11-19T01:28:15.829Z,13.52
2022-11-19T01:31:28.681Z,16.27
2022-11-19T01:34:25.542Z,18.60
2022-11-19T01:37:22.390Z,16.80
2022-11-19T01:40:19.522Z,17.48
2022-11-19T01:43:16.544Z,15.23
2022-11-19T01:46:17.817Z,14.32
2022-11-19T01:49:20.261Z,12.45
2022-11-19T01:52:17.601Z,14.52
2022-11-19T01:55:15.248Z,13.43
2022-11-19T01:58:17.572Z,13.98
2022-11-19T02:01:16.389Z,16.73
2022-11-19T02:04:16.424Z,13.40
2022-11-19T02:07:14.099Z,16.05
2022-11-19T02:10:11.458Z,14.95
2022-11-19T02:13:42.663Z,19.38
2022-11-19T02:16:42.427Z,19.77
2022-11-19T02:20:18.679Z,20.13
2022-11-19T02:23:24.083Z,23.02
2022-11-19T02:27:03.116Z,24.70
2022-11-19T02:30:18.276Z,24.38
2022-11-19T02:33:40.776Z,27.58
2022-11-19T02:37:05.304Z,28.08
2022-11-19T02:40:08.266Z,27.80
2022-11-19T02:43:10.963Z,20.38
2022-11-19T02:46:16.448Z,25.85
2022-11-19T02:49:15.362Z,27.20
2022-11-19T02:52:15.538Z,28.13
2022-11-19T02:55:15.056Z,32.78
2022-11-19T02:58:37.940Z,29.55
2022-11-19T03:01:57.274Z,28.40
2022-11-19T03:04:55.713Z,33.85
2022-11-19T03:07:52.632Z,31.73
2022-11-19T03:11:24.731Z,27.15
2022-11-19T03:14:50.044Z,34.35
2022-11-19T03:18:15.462Z,34.97
2022-11-19T03:21:47.190Z,25.58
2022-11-19T03:24:58.839Z,27.10
2022-11-19T03:28:05.274Z,27.10
2022-11-19T03:31:04.356Z,28.83
2022-11-19T03:34:08.909Z,26.25
2022-11-19T03:37:09.398Z,30.75
2022-11-19T03:40:08.997Z,28.42
2022-11-19T03:43:09.874Z,23.70
2022-11-19T03:46:13.183Z,27.10
2022-11-19T03:49:13.235Z,24.10
2022-11-19T03:52:19.806Z,23.63
2022-11-19T03:55:16.921Z,22.35
2022-11-19T03:58:13.835Z,20.77
2022-11-19T04:01:11.947Z,22.73
2022-11-19T04:04:27.164Z,21.15
2022-11-19T04:07:24.197Z,25.33
2022-11-19T04:10:21.212Z,21.30
2022-11-19T04:13:18.125Z,21.58
2022-11-19T04:16:14.942Z,22.35
2022-11-19T04:19:11.848Z,20.95
2022-11-19T04:22:09.616Z,22.77
2022-11-19T04:25:06.837Z,20.23
2022-11-19T04:28:03.687Z,20.83
2022-11-19T04:31:00.549Z,20.25
2022-11-19T04:33:57.403Z,19.95
2022-11-19T04:36:54.251Z,19.35
2022-11-19T04:39:51.069Z,18.55
2022-11-19T04:42:47.873Z,19.95
2022-11-19T04:45:44.687Z,16.00
2022-11-19T04:48:41.561Z,15.18
2022-11-19T04:51:38.481Z,20.30
2022-11-19T04:54:35.392Z,17.55
2022-11-19T04:57:32.644Z,17.05
2022-11-19T05:00:29.577Z,18.98
2022-11-19T05:03:26.416Z,16.90
2022-11-19T05:06:23.231Z,14.18
2022-11-19T05:09:20.311Z,15.82
2022-11-19T05:12:17.454Z,18.10
2022-11-19T05:15:14.309Z,18.05
2022-11-19T05:18:11.971Z,16.80
2022-11-19T05:21:09.142Z,16.75
2022-11-19T05:24:06.337Z,15.68
2022-11-19T05:27:03.622Z,15.88
2022-11-19T05:30:00.450Z,16.08
2022-11-19T05:32:57.301Z,13.73
2022-11-19T05:35:54.130Z,16.92
2022-11-19T05:38:50.967Z,14.27
2022-11-19T05:41:47.793Z,12.57
2022-11-19T05:44:44.630Z,16.90
2022-11-19T05:47:44.733Z,15.63
2022-11-19T05:50:45.247Z,16.30
2022-11-19T05:53:43.066Z,15.45
2022-11-19T05:56:40.754Z,15.43
2022-11-19T05:59:43.516Z,18.27
2022-11-19T06:02:40.831Z,16.75
2022-11-19T06:05:40.470Z,16.80
2022-11-19T06:08:37.670Z,13.10
2022-11-19T06:11:52.685Z,16.55
2022-11-19T06:14:49.569Z,15.63
2022-11-19T06:17:46.415Z,14.93
2022-11-19T06:20:43.277Z,16.67
2022-11-19T06:23:40.139Z,16.15
2022-11-19T06:26:37.924Z,16.35
2022-11-19T06:29:34.793Z,17.13
2022-11-19T06:32:31.700Z,15.75
2022-11-19T06:35:28.509Z,17.80
2022-11-19T06:38:25.835Z,19.52
2022-11-19T06:41:22.835Z,15.23
2022-11-19T06:44:19.735Z,15.25
2022-11-19T06:47:16.579Z,19.05
2022-11-19T06:50:13.413Z,28.90
2022-11-19T06:53:10.241Z,22.95
2022-11-19T06:56:08.029Z,20.55
2022-11-19T06:59:04.850Z,17.35
2022-11-19T07:02:01.692Z,16.88
2022-11-19T07:04:58.604Z,16.70
2022-11-19T07:08:00.137Z,15.98
2022-11-19T07:10:59.845Z,19.20
2022-11-19T07:13:57.700Z,24.05
2022-11-19T07:16:56.632Z,16.42
2022-11-19T07:19:53.559Z,14.80
2022-11-19T07:22:53.663Z,25.52
2022-11-19T07:25:53.539Z,20.88
2022-11-19T07:28:51.177Z,24.48
2022-11-19T07:31:50.532Z,23.83
2022-11-19T07:34:47.554Z,19.83
2022-11-19T07:37:44.425Z,20.50
2022-11-19T07:40:41.289Z,23.73
2022-11-19T07:43:38.200Z,18.48
2022-11-19T07:46:35.443Z,19.17
2022-11-19T07:49:32.305Z,18.55
2022-11-19T07:52:29.153Z,21.20
2022-11-19T07:55:26.413Z,19.15
2022-11-19T07:58:23.318Z,16.67
2022-11-19T08:01:23.176Z,15.23
2022-11-19T08:04:20.117Z,17.83
2022-11-19T08:07:17.118Z,20.25
2022-11-19T08:10:14.108Z,17.98
2022-11-19T08:13:10.923Z,18.60
2022-11-19T08:16:37.779Z,20.08
2022-11-19T08:19:34.723Z,18.70
2022-11-19T08:22:31.575Z,16.52
2022-11-19T08:25:28.519Z,16.40
2022-11-19T08:28:25.404Z,15.35
2022-11-19T08:31:22.242Z,18.40
2022-11-19T08:34:19.774Z,20.65
2022-11-19T08:37:17.191Z,21.23
2022-11-19T08:40:14.389Z,16.13
2022-11-19T08:43:11.231Z,17.40
2022-11-19T08:46:08.916Z,17.42
2022-11-19T08:49:06.455Z,15.45
2022-11-19T08:52:03.361Z,17.38
2022-11-19T08:55:00.264Z,22.50
2022-11-19T08:58:06.403Z,21.90
2022-11-19T09:01:15.037Z,19.40
2022-11-19T09:04:11.975Z,23.65
2022-11-19T09:07:08.854Z,21.17
2022-11-19T09:10:06.289Z,25.17
2022-11-19T09:13:04.452Z,26.73
2022-11-19T09:16:01.660Z,19.00
2022-11-19T09:18:58.657Z,20.45
2022-11-19T09:21:55.466Z,22.02
2022-11-19T09:24:52.314Z,17.67
2022-11-19T09:27:49.216Z,17.20
2022-11-19T09:30:53.867Z,21.83
2022-11-19T09:33:52.512Z,18.92
2022-11-19T09:36:49.403Z,17.17
2022-11-19T09:39:46.363Z,19.40
2022-11-19T09:43:15.472Z,19.42
2022-11-19T09:46:47.886Z,21.10
2022-11-19T09:49:52.872Z,30.90
2022-11-19T09:53:17.295Z,21.10
2022-11-19T09:56:25.403Z,20.25
2022-11-19T09:59:36.475Z,22.27
2022-11-19T10:02:33.444Z,22.83
2022-11-19T10:06:08.379Z,19.98
2022-11-19T10:09:37.160Z,19.05
2022-11-19T10:13:12.060Z,25.77
2022-11-19T10:16:08.972Z,20.23
2022-11-19T10:19:37.527Z,20.20
2022-11-19T10:23:02.372Z,23.17
2022-11-19T10:26:06.692Z,23.67
2022-11-19T10:29:21.496Z,18.63
2022-11-19T10:32:42.846Z,24.90
2022-11-19T10:35:50.073Z,22.33
2022-11-19T10:39:17.250Z,21.55
2022-11-19T10:42:32.235Z,19.33
2022-11-19T10:45:30.117Z,19.15
2022-11-19T10:48:38.009Z,24.38
2022-11-19T10:51:41.628Z,19.35
2022-11-19T10:54:39.838Z,21.40
2022-11-19T10:57:37.011Z,18.25
2022-11-19T11:00:35.488Z,19.30
2022-11-19T11:03:52.189Z,23.23
2022-11-19T11:06:57.411Z,20.50
2022-11-19T11:09:54.260Z,19.92
2022-11-19T11:13:10.745Z,19.20
2022-11-19T11:16:13.294Z,20.27
2022-11-19T11:19:20.061Z,20.80
2022-11-19T11:22:19.825Z,16.50
2022-11-19T11:25:23.273Z,22.08
2022-11-19T11:28:23.303Z,19.02
2022-11-19T11:31:45.909Z,21.17
2022-11-19T11:34:44.067Z,20.50
2022-11-19T11:37:41.094Z,17.77
2022-11-19T11:40:38.021Z,17.98
2022-11-19T11:43:38.557Z,16.38
2022-11-19T11:46:48.006Z,18.42
2022-11-19T11:49:51.452Z,16.23
2022-11-19T11:52:53.817Z,19.17
2022-11-19T11:56:02.547Z,18.17
2022-11-19T11:59:30.439Z,21.08
2022-11-19T12:02:34.013Z,18.55
2022-11-19T12:06:01.506Z,18.15
2022-11-19T12:09:44.586Z,18.02
2022-11-19T12:12:50.754Z,16.85
2022-11-19T12:16:22.133Z,15.27
2022-11-19T12:19:57.435Z,17.88
2022-11-19T12:23:14.557Z,17.30
2022-11-19T12:26:36.783Z,17.20
2022-11-19T12:30:06.141Z,18.23
2022-11-19T12:33:39.927Z,20.73
2022-11-19T12:37:18.825Z,15.38
2022-11-19T12:40:31.105Z,17.85
2022-11-19T12:44:09.482Z,38.08
2022-11-19T12:47:44.750Z,20.48
2022-11-19T12:50:56.904Z,20.00
2022-11-19T12:54:36.117Z,23.15
2022-11-19T12:58:00.301Z,64.97
2022-11-19T13:01:05.669Z,22.50
2022-11-19T13:04:11.444Z,25.70
2022-11-19T13:07:41.296Z,41.28
2022-11-19T13:11:22.332Z,42.67
2022-11-19T13:14:38.171Z,33.42
2022-11-19T13:17:44.529Z,67.32
2022-11-19T13:21:07.168Z,40.03
2022-11-19T13:24:36.757Z,22.38
2022-11-19T13:27:33.632Z,56.72
2022-11-19T13:30:33.609Z,109.80
2022-11-19T13:33:51.447Z,59.95
2022-11-19T13:37:17.081Z,87.82
2022-11-19T13:40:40.490Z,108.88
2022-11-19T13:43:55.991Z,75.03
2022-11-19T13:46:59.735Z,52.25
2022-11-19T13:50:06.332Z,141.60
2022-11-19T13:53:19.049Z,62.75
2022-11-19T13:56:17.499Z,47.33
2022-11-19T14:00:15.758Z,64.35
2022-11-19T14:04:00.342Z,26.77
2022-11-19T14:07:30.725Z,25.45
2022-11-19T14:14:46.053Z,51.97
2022-11-19T14:18:13.497Z,36.70
2022-11-19T14:22:03.308Z,26.63
2022-11-19T14:25:19.003Z,21.63
2022-11-19T14:28:52.072Z,29.10
2022-11-19T14:32:02.756Z,36.67
2022-11-19T14:35:02.846Z,19.48
2022-11-19T14:38:19.893Z,18.77
2022-11-19T14:41:31.127Z,18.08
2022-11-19T14:44:27.850Z,19.58
2022-11-19T14:47:28.618Z,19.98
2022-11-19T14:50:30.839Z,20.25
2022-11-19T14:53:27.741Z,17.05
2022-11-19T14:56:25.215Z,20.48
2022-11-19T14:59:31.307Z,20.83
2022-11-19T15:02:46.089Z,18.13
2022-11-19T15:05:46.353Z,20.42
2022-11-19T15:08:59.001Z,20.92
2022-11-19T15:11:55.863Z,19.33
2022-11-19T15:15:07.607Z,22.92
2022-11-19T15:18:35.153Z,21.65
2022-11-19T15:22:15.938Z,56.38
2022-11-19T15:25:52.412Z,50.70
2022-11-19T15:29:12.271Z,27.33
2022-11-19T15:33:03.838Z,67.00
2022-11-19T15:36:18.867Z,51.20
2022-11-19T15:39:42.849Z,50.08
2022-11-19T15:43:08.781Z,66.32
2022-11-19T15:46:51.015Z,25.83
2022-11-19T15:49:51.132Z,85.25
2022-11-19T15:53:14.529Z,68.00
2022-11-19T15:56:14.444Z,52.08
2022-11-19T15:59:15.434Z,45.30
2022-11-19T16:02:38.628Z,27.38
2022-11-19T16:05:35.592Z,138.63
2022-11-19T16:08:33.482Z,34.53
2022-11-19T16:11:54.134Z,30.30
2022-11-19T16:18:16.587Z,25.38
2022-11-19T16:21:22.949Z,28.15
2022-11-19T16:24:40.018Z,30.05
2022-11-19T16:27:45.038Z,30.85
2022-11-19T16:31:00.413Z,63.20
2022-11-19T16:33:58.005Z,27.50
2022-11-19T16:36:55.219Z,85.38
2022-11-19T16:39:53.352Z,61.25
2022-11-19T16:43:00.149Z,172.38
2022-11-19T16:45:57.909Z,62.70
2022-11-19T16:49:00.754Z,30.40
2022-11-19T16:51:58.240Z,32.90
2022-11-19T16:54:55.095Z,31.52
2022-11-19T16:58:02.511Z,37.72
2022-11-19T17:00:59.746Z,55.85
2022-11-19T17:04:07.616Z,90.97
2022-11-19T17:07:05.425Z,36.40
2022-11-19T17:10:34.077Z,25.88
2022-11-19T17:13:32.646Z,17.20
2022-11-19T17:16:29.534Z,16.33
2022-11-19T17:19:33.609Z,20.75
2022-11-19T17:22:35.656Z,17.63
2022-11-19T17:25:32.518Z,17.40
2022-11-19T17:28:45.252Z,16.73
2022-11-19T17:31:47.946Z,25.80
2022-11-19T17:34:49.187Z,24.90
2022-11-19T17:37:46.085Z,25.73
2022-11-19T17:40:58.760Z,21.45
2022-11-19T17:44:14.682Z,25.13
2022-11-19T17:47:22.722Z,37.33
2022-11-19T17:50:20.381Z,29.48
2022-11-19T17:53:19.482Z,22.30
2022-11-19T17:56:26.154Z,22.80
2022-11-19T17:59:23.046Z,43.28
2022-11-19T18:02:21.204Z,56.78
2022-11-19T18:05:21.353Z,53.60
2022-11-19T18:08:18.451Z,52.45
2022-11-19T18:11:25.403Z,35.40
2022-11-19T18:14:22.334Z,29.77
2022-11-19T18:17:19.288Z,36.63
2022-11-19T18:20:16.665Z,35.78
2022-11-19T18:23:13.873Z,41.85
2022-11-19T18:26:12.522Z,58.03
2022-11-19T18:29:09.567Z,87.65
2022-11-19T18:32:06.541Z,83.60
2022-11-19T18:35:03.959Z,52.65
2022-11-19T18:38:00.810Z,22.27
2022-11-19T18:40:57.694Z,23.85
2022-11-19T18:44:12.985Z,21.33
2022-11-19T18:47:13.035Z,22.55
2022-11-19T18:50:12.407Z,47.60
2022-11-19T18:53:13.695Z,43.33
2022-11-19T18:56:19.041Z,24.65
2022-11-19T18:59:15.965Z,35.03
2022-11-19T19:02:12.951Z,40.53
2022-11-19T19:05:10.102Z,32.53
2022-11-19T19:08:07.586Z,46.08
2022-11-19T19:11:26.212Z,49.30
2022-11-19T19:14:23.178Z,68.10
2022-11-19T19:17:20.283Z,61.55
2022-11-19T19:20:17.239Z,66.70
2022-11-19T19:23:14.075Z,61.40
2022-11-19T19:26:12.853Z,38.30
2022-11-19T19:29:09.754Z,37.00
2022-11-19T19:32:07.546Z,31.08
2022-11-19T19:35:04.854Z,33.72
2022-11-19T19:38:02.158Z,35.13
2022-11-19T19:41:10.705Z,22.25
2022-11-19T19:44:07.601Z,64.13
2022-11-19T19:47:05.460Z,78.20
2022-11-19T19:50:02.379Z,48.40
2022-11-19T19:53:00.107Z,49.05
2022-11-19T19:56:28.913Z,27.98
2022-11-19T19:59:25.809Z,46.38
2022-11-19T20:02:22.789Z,59.85
2022-11-19T20:05:19.767Z,25.67
2022-11-19T20:08:16.845Z,65.35
2022-11-19T20:11:21.513Z,74.00
2022-11-19T20:14:18.364Z,66.15
2022-11-19T20:17:15.270Z,53.25
2022-11-19T20:20:12.649Z,71.72
2022-11-19T20:23:09.538Z,61.42
2022-11-19T20:26:20.237Z,44.90
2022-11-19T20:29:17.705Z,28.27
2022-11-19T20:32:14.713Z,26.83
2022-11-19T20:35:11.905Z,40.97
2022-11-19T20:38:08.834Z,27.60
2022-11-19T20:41:29.643Z,36.38
2022-11-19T20:44:26.572Z,43.08
2022-11-19T20:47:23.514Z,29.95
2022-11-19T20:50:20.404Z,28.65
2022-11-19T20:53:17.248Z,29.67
2022-11-19T20:56:14.596Z,24.25
2022-11-19T20:59:12.670Z,24.85
2022-11-19T21:02:10.315Z,28.42
2022-11-19T21:05:08.025Z,28.88
2022-11-19T21:08:05.135Z,26.77
2022-11-19T21:11:11.432Z,28.23
2022-11-19T21:14:08.354Z,34.63
2022-11-19T21:17:05.397Z,32.35
2022-11-19T21:20:02.287Z,30.60
2022-11-19T21:22:59.186Z,20.70
2022-11-19T21:26:13.518Z,21.85
2022-11-19T21:29:10.460Z,22.80
2022-11-19T21:32:08.144Z,19.80
2022-11-19T21:35:05.752Z,24.02
2022-11-19T21:38:02.652Z,31.48
2022-11-19T21:40:59.864Z,35.63
2022-11-19T21:43:56.846Z,25.20
2022-11-19T21:46:53.743Z,27.33
2022-11-19T21:49:53.451Z,22.52
2022-11-19T21:52:50.309Z,19.85
2022-11-19T21:55:47.975Z,22.23
2022-11-19T21:58:44.897Z,21.92
2022-11-19T22:01:41.829Z,21.40
2022-11-19T22:04:38.774Z,24.13
2022-11-19T22:07:35.808Z,20.42
2022-11-19T22:10:32.775Z,21.13
2022-11-19T22:13:30.035Z,26.17
2022-11-19T22:16:28.056Z,20.75
2022-11-19T22:19:24.912Z,20.10
2022-11-19T22:22:21.812Z,19.38
2022-11-19T22:25:18.779Z,20.60
2022-11-19T22:28:15.649Z,18.83
2022-11-19T22:31:12.574Z,22.48
2022-11-19T22:34:11.111Z,19.02
2022-11-19T22:37:08.402Z,17.73
2022-11-19T22:40:05.866Z,16.70
2022-11-19T22:43:02.745Z,18.88
2022-11-19T22:46:00.097Z,14.82
2022-11-19T22:48:57.218Z,20.83
2022-11-19T22:51:54.619Z,17.95
2022-11-19T22:54:51.669Z,20.25
2022-11-19T22:57:48.555Z,25.33
2022-11-19T23:00:48.815Z,22.15
2022-11-19T23:06:43.345Z,23.40
2022-11-19T23:09:40.209Z,26.13
2022-11-19T23:12:55.816Z,26.65
2022-11-19T23:16:05.882Z,19.50
2022-11-19T23:19:03.021Z,19.48
2022-11-19T23:21:59.875Z,17.08
2022-11-19T23:24:56.922Z,20.35
2022-11-19T23:27:53.773Z,18.75
2022-11-19T23:30:50.848Z,22.83
2022-11-19T23:33:49.082Z,17.15
2022-11-19T23:36:46.356Z,19.30
2022-11-19T23:39:43.301Z,16.10
2022-11-19T23:42:40.162Z,18.58
2022-11-19T23:45:37.092Z,19.35
2022-11-19T23:48:35.199Z,21.45
2022-11-19T23:51:37.822Z,14.50
2022-11-19T23:54:34.704Z,17.70
2022-11-19T23:57:31.576Z,15.93
